sensor_id;sensor_type;location;lat;lon;timestamp;temperature;humidity
30594;DHT22;33199;47.590;8.300;2023-04-22T00:00:10;13.40;73.00
30594;DHT22;33199;47.590;8.300;2023-04-22T00:02:37;13.30;73.00
30594;DHT22;33199;47.590;8.300;2023-04-22T00:05:04;13.30;72.90
30594;DHT22;33199;47.590;8.300;2023-04-22T00:07:30;13.30;72.90
30594;DHT22;33199;47.590;8.300;2023-04-22T00:09:57;13.30;72.90
30594;DHT22;33199;47.590;8.300;2023-04-22T00:12:23;13.30;72.90
30594;DHT22;33199;47.590;8.300;2023-04-22T00:14:49;13.30;73.00
30594;DHT22;33199;47.590;8.300;2023-04-22T00:17:15;13.30;72.90
30594;DHT22;33199;47.590;8.300;2023-04-22T00:19:40;13.30;72.90
30594;DHT22;33199;47.590;8.300;2023-04-22T00:22:06;13.30;72.90
30594;DHT22;33199;47.590;8.300;2023-04-22T00:24:31;13.30;73.00
30594;DHT22;33199;47.590;8.300;2023-04-22T00:26:57;13.30;72.90
30594;DHT22;33199;47.590;8.300;2023-04-22T00:29:24;13.30;72.90
30594;DHT22;33199;47.590;8.300;2023-04-22T00:31:50;13.30;72.90
30594;DHT22;33199;47.590;8.300;2023-04-22T00:34:17;13.30;72.90
30594;DHT22;33199;47.590;8.300;2023-04-22T00:36:42;13.30;72.90
30594;DHT22;33199;47.590;8.300;2023-04-22T00:39:08;13.30;73.70
30594;DHT22;33199;47.590;8.300;2023-04-22T00:41:34;13.30;73.00
30594;DHT22;33199;47.590;8.300;2023-04-22T00:44:00;13.30;72.90
30594;DHT22;33199;47.590;8.300;2023-04-22T00:46:26;13.30;72.90
30594;DHT22;33199;47.590;8.300;2023-04-22T00:48:52;13.30;72.90
30594;DHT22;33199;47.590;8.300;2023-04-22T00:51:19;13.30;72.90
30594;DHT22;33199;47.590;8.300;2023-04-22T00:53:44;13.30;72.90
30594;DHT22;33199;47.590;8.300;2023-04-22T00:56:10;13.20;72.90
30594;DHT22;33199;47.590;8.300;2023-04-22T00:58:38;13.30;72.90
30594;DHT22;33199;47.590;8.300;2023-04-22T01:01:03;13.30;72.90
30594;DHT22;33199;47.590;8.300;2023-04-22T01:03:30;13.20;72.80
30594;DHT22;33199;47.590;8.300;2023-04-22T01:05:57;13.30;72.90
30594;DHT22;33199;47.590;8.300;2023-04-22T01:08:27;13.20;72.80
30594;DHT22;33199;47.590;8.300;2023-04-22T01:10:53;13.20;72.80
30594;DHT22;33199;47.590;8.300;2023-04-22T01:13:19;13.20;72.80
30594;DHT22;33199;47.590;8.300;2023-04-22T01:15:45;13.20;73.00
30594;DHT22;33199;47.590;8.300;2023-04-22T01:18:11;13.20;72.80
30594;DHT22;33199;47.590;8.300;2023-04-22T01:20:37;13.20;72.80
30594;DHT22;33199;47.590;8.300;2023-04-22T01:23:03;13.20;72.80
30594;DHT22;33199;47.590;8.300;2023-04-22T01:25:34;13.20;72.80
30594;DHT22;33199;47.590;8.300;2023-04-22T01:28:01;13.20;72.80
30594;DHT22;33199;47.590;8.300;2023-04-22T01:30:27;13.20;72.80
30594;DHT22;33199;47.590;8.300;2023-04-22T01:32:53;13.20;72.80
30594;DHT22;33199;47.590;8.300;2023-04-22T01:35:18;13.20;72.80
30594;DHT22;33199;47.590;8.300;2023-04-22T01:37:44;13.20;72.80
30594;DHT22;33199;47.590;8.300;2023-04-22T01:40:11;13.10;72.70
30594;DHT22;33199;47.590;8.300;2023-04-22T01:42:38;13.20;72.80
30594;DHT22;33199;47.590;8.300;2023-04-22T01:45:04;13.10;72.70
30594;DHT22;33199;47.590;8.300;2023-04-22T01:47:29;13.20;72.80
30594;DHT22;33199;47.590;8.300;2023-04-22T01:49:55;13.20;72.80
30594;DHT22;33199;47.590;8.300;2023-04-22T01:52:21;13.10;72.70
30594;DHT22;33199;47.590;8.300;2023-04-22T01:54:49;13.10;72.60
30594;DHT22;33199;47.590;8.300;2023-04-22T01:57:16;13.20;72.80
30594;DHT22;33199;47.590;8.300;2023-04-22T01:59:42;13.10;72.70
30594;DHT22;33199;47.590;8.300;2023-04-22T02:02:07;13.10;73.60
30594;DHT22;33199;47.590;8.300;2023-04-22T02:04:33;13.10;72.60
30594;DHT22;33199;47.590;8.300;2023-04-22T02:06:59;13.10;72.70
30594;DHT22;33199;47.590;8.300;2023-04-22T02:09:24;13.10;72.70
30594;DHT22;33199;47.590;8.300;2023-04-22T02:11:50;13.10;72.60
30594;DHT22;33199;47.590;8.300;2023-04-22T02:14:15;13.10;72.70
30594;DHT22;33199;47.590;8.300;2023-04-22T02:16:41;13.10;72.60
30594;DHT22;33199;47.590;8.300;2023-04-22T02:19:07;13.10;72.70
30594;DHT22;33199;47.590;8.300;2023-04-22T02:21:33;13.10;72.60
30594;DHT22;33199;47.590;8.300;2023-04-22T02:24:00;13.10;72.60
30594;DHT22;33199;47.590;8.300;2023-04-22T02:26:26;13.10;72.70
30594;DHT22;33199;47.590;8.300;2023-04-22T02:28:53;13.10;72.70
30594;DHT22;33199;47.590;8.300;2023-04-22T02:31:19;13.10;72.70
30594;DHT22;33199;47.590;8.300;2023-04-22T02:33:44;13.10;72.70
30594;DHT22;33199;47.590;8.300;2023-04-22T02:36:10;13.10;72.70
30594;DHT22;33199;47.590;8.300;2023-04-22T02:38:36;13.10;72.60
30594;DHT22;33199;47.590;8.300;2023-04-22T02:41:02;13.00;73.40
30594;DHT22;33199;47.590;8.300;2023-04-22T02:43:28;13.10;72.60
30594;DHT22;33199;47.590;8.300;2023-04-22T02:45:54;13.00;72.60
30594;DHT22;33199;47.590;8.300;2023-04-22T02:48:20;13.00;72.70
30594;DHT22;33199;47.590;8.300;2023-04-22T02:50:46;13.00;72.60
30594;DHT22;33199;47.590;8.300;2023-04-22T02:53:11;13.10;72.60
30594;DHT22;33199;47.590;8.300;2023-04-22T02:55:40;13.00;72.50
30594;DHT22;33199;47.590;8.300;2023-04-22T02:58:05;13.00;72.60
30594;DHT22;33199;47.590;8.300;2023-04-22T03:00:31;13.00;72.60
30594;DHT22;33199;47.590;8.300;2023-04-22T03:02:57;13.00;72.60
30594;DHT22;33199;47.590;8.300;2023-04-22T03:05:23;13.00;72.50
30594;DHT22;33199;47.590;8.300;2023-04-22T03:07:49;13.00;72.60
30594;DHT22;33199;47.590;8.300;2023-04-22T03:10:14;13.00;72.60
30594;DHT22;33199;47.590;8.300;2023-04-22T03:12:40;13.00;72.60
30594;DHT22;33199;47.590;8.300;2023-04-22T03:15:06;13.00;72.50
30594;DHT22;33199;47.590;8.300;2023-04-22T03:17:32;13.00;72.50
30594;DHT22;33199;47.590;8.300;2023-04-22T03:19:57;13.00;72.50
30594;DHT22;33199;47.590;8.300;2023-04-22T03:22:23;13.00;72.50
30594;DHT22;33199;47.590;8.300;2023-04-22T03:24:49;13.00;72.50
30594;DHT22;33199;47.590;8.300;2023-04-22T03:27:14;13.00;72.50
30594;DHT22;33199;47.590;8.300;2023-04-22T03:29:41;13.00;72.50
30594;DHT22;33199;47.590;8.300;2023-04-22T03:32:07;12.90;72.40
30594;DHT22;33199;47.590;8.300;2023-04-22T03:34:32;12.90;72.50
30594;DHT22;33199;47.590;8.300;2023-04-22T03:36:58;13.00;72.60
30594;DHT22;33199;47.590;8.300;2023-04-22T03:39:23;12.90;72.50
30594;DHT22;33199;47.590;8.300;2023-04-22T03:41:49;12.90;72.40
30594;DHT22;33199;47.590;8.300;2023-04-22T03:44:15;12.90;72.40
30594;DHT22;33199;47.590;8.300;2023-04-22T03:46:40;12.90;72.40
30594;DHT22;33199;47.590;8.300;2023-04-22T03:49:06;12.90;72.40
30594;DHT22;33199;47.590;8.300;2023-04-22T03:51:31;12.90;72.40
30594;DHT22;33199;47.590;8.300;2023-04-22T03:53:57;12.90;72.40
30594;DHT22;33199;47.590;8.300;2023-04-22T03:56:23;12.90;72.40
30594;DHT22;33199;47.590;8.300;2023-04-22T03:58:50;12.90;72.40
30594;DHT22;33199;47.590;8.300;2023-04-22T04:01:16;12.90;72.40
30594;DHT22;33199;47.590;8.300;2023-04-22T04:03:41;12.90;72.40
30594;DHT22;33199;47.590;8.300;2023-04-22T04:06:07;12.90;72.40
30594;DHT22;33199;47.590;8.300;2023-04-22T04:08:33;12.90;72.40
30594;DHT22;33199;47.590;8.300;2023-04-22T04:10:59;12.90;72.40
30594;DHT22;33199;47.590;8.300;2023-04-22T04:13:25;12.90;72.40
30594;DHT22;33199;47.590;8.300;2023-04-22T04:15:50;12.90;72.40
30594;DHT22;33199;47.590;8.300;2023-04-22T04:18:16;12.80;72.30
30594;DHT22;33199;47.590;8.300;2023-04-22T04:20:42;12.80;72.30
30594;DHT22;33199;47.590;8.300;2023-04-22T04:23:08;12.80;72.30
30594;DHT22;33199;47.590;8.300;2023-04-22T04:25:33;12.80;72.30
30594;DHT22;33199;47.590;8.300;2023-04-22T04:28:09;12.80;72.30
30594;DHT22;33199;47.590;8.300;2023-04-22T04:30:36;12.80;72.30
30594;DHT22;33199;47.590;8.300;2023-04-22T04:33:03;12.80;72.30
30594;DHT22;33199;47.590;8.300;2023-04-22T04:35:32;12.80;72.30
30594;DHT22;33199;47.590;8.300;2023-04-22T04:37:59;12.80;73.10
30594;DHT22;33199;47.590;8.300;2023-04-22T04:40:25;12.80;72.30
30594;DHT22;33199;47.590;8.300;2023-04-22T04:42:53;12.80;72.30
30594;DHT22;33199;47.590;8.300;2023-04-22T04:45:20;12.80;72.30
30594;DHT22;33199;47.590;8.300;2023-04-22T04:47:47;12.80;72.30
30594;DHT22;33199;47.590;8.300;2023-04-22T04:50:15;12.80;73.10
30594;DHT22;33199;47.590;8.300;2023-04-22T04:52:41;12.80;72.30
30594;DHT22;33199;47.590;8.300;2023-04-22T04:55:07;12.80;72.30
30594;DHT22;33199;47.590;8.300;2023-04-22T04:57:33;12.80;72.30
30594;DHT22;33199;47.590;8.300;2023-04-22T04:59:59;12.80;72.30
30594;DHT22;33199;47.590;8.300;2023-04-22T05:02:24;12.80;72.30
30594;DHT22;33199;47.590;8.300;2023-04-22T05:04:50;12.80;72.80
30594;DHT22;33199;47.590;8.300;2023-04-22T05:07:15;12.70;72.20
30594;DHT22;33199;47.590;8.300;2023-04-22T05:09:41;12.80;72.40
30594;DHT22;33199;47.590;8.300;2023-04-22T05:12:06;12.80;73.00
30594;DHT22;33199;47.590;8.300;2023-04-22T05:14:32;12.70;72.30
30594;DHT22;33199;47.590;8.300;2023-04-22T05:16:58;12.70;72.20
30594;DHT22;33199;47.590;8.300;2023-04-22T05:19:23;12.70;72.20
30594;DHT22;33199;47.590;8.300;2023-04-22T05:21:50;12.70;72.20
30594;DHT22;33199;47.590;8.300;2023-04-22T05:24:15;12.70;72.20
30594;DHT22;33199;47.590;8.300;2023-04-22T05:26:41;12.70;72.20
30594;DHT22;33199;47.590;8.300;2023-04-22T05:29:07;12.70;71.00
30594;DHT22;33199;47.590;8.300;2023-04-22T05:31:32;12.40;66.50
30594;DHT22;33199;47.590;8.300;2023-04-22T05:33:58;12.30;67.00
30594;DHT22;33199;47.590;8.300;2023-04-22T05:36:24;12.10;68.10
30594;DHT22;33199;47.590;8.300;2023-04-22T05:38:52;12.00;68.60
30594;DHT22;33199;47.590;8.300;2023-04-22T05:41:17;12.00;68.80
30594;DHT22;33199;47.590;8.300;2023-04-22T05:43:43;12.10;69.00
30594;DHT22;33199;47.590;8.300;2023-04-22T05:46:08;12.10;69.50
30594;DHT22;33199;47.590;8.300;2023-04-22T05:48:34;12.10;70.20
30594;DHT22;33199;47.590;8.300;2023-04-22T05:51:00;12.20;70.90
30594;DHT22;33199;47.590;8.300;2023-04-22T05:53:26;12.20;71.00
30594;DHT22;33199;47.590;8.300;2023-04-22T05:55:52;12.20;71.00
30594;DHT22;33199;47.590;8.300;2023-04-22T05:58:18;12.20;71.10
30594;DHT22;33199;47.590;8.300;2023-04-22T06:00:43;12.20;71.10
30594;DHT22;33199;47.590;8.300;2023-04-22T06:03:09;12.30;71.20
30594;DHT22;33199;47.590;8.300;2023-04-22T06:05:34;12.30;71.10
30594;DHT22;33199;47.590;8.300;2023-04-22T06:08:00;12.30;71.10
30594;DHT22;33199;47.590;8.300;2023-04-22T06:10:26;12.30;71.10
30594;DHT22;33199;47.590;8.300;2023-04-22T06:12:51;12.30;71.10
30594;DHT22;33199;47.590;8.300;2023-04-22T06:15:17;12.30;71.10
30594;DHT22;33199;47.590;8.300;2023-04-22T06:17:43;12.30;71.10
30594;DHT22;33199;47.590;8.300;2023-04-22T06:20:10;12.30;71.30
30594;DHT22;33199;47.590;8.300;2023-04-22T06:22:36;12.30;71.10
30594;DHT22;33199;47.590;8.300;2023-04-22T06:25:02;12.30;71.20
30594;DHT22;33199;47.590;8.300;2023-04-22T06:27:27;12.30;71.10
30594;DHT22;33199;47.590;8.300;2023-04-22T06:29:53;12.40;71.20
30594;DHT22;33199;47.590;8.300;2023-04-22T06:32:18;12.30;71.20
30594;DHT22;33199;47.590;8.300;2023-04-22T06:34:44;12.30;71.10
30594;DHT22;33199;47.590;8.300;2023-04-22T06:37:10;12.30;71.10
30594;DHT22;33199;47.590;8.300;2023-04-22T06:39:35;12.30;71.10
30594;DHT22;33199;47.590;8.300;2023-04-22T06:42:01;12.30;71.20
30594;DHT22;33199;47.590;8.300;2023-04-22T06:44:28;12.30;71.20
30594;DHT22;33199;47.590;8.300;2023-04-22T06:46:53;12.30;71.10
30594;DHT22;33199;47.590;8.300;2023-04-22T06:49:19;12.30;71.20
30594;DHT22;33199;47.590;8.300;2023-04-22T06:51:45;12.30;71.20
30594;DHT22;33199;47.590;8.300;2023-04-22T06:54:11;12.30;71.20
30594;DHT22;33199;47.590;8.300;2023-04-22T06:56:37;12.30;71.20
30594;DHT22;33199;47.590;8.300;2023-04-22T06:59:02;12.30;71.20
30594;DHT22;33199;47.590;8.300;2023-04-22T07:01:28;12.30;71.30
30594;DHT22;33199;47.590;8.300;2023-04-22T07:03:54;12.30;71.20
30594;DHT22;33199;47.590;8.300;2023-04-22T07:06:19;12.20;70.10
30594;DHT22;33199;47.590;8.300;2023-04-22T07:08:45;12.20;70.00
30594;DHT22;33199;47.590;8.300;2023-04-22T07:11:11;12.10;70.60
30594;DHT22;33199;47.590;8.300;2023-04-22T07:13:36;12.10;71.00
30594;DHT22;33199;47.590;8.300;2023-04-22T07:16:02;12.10;71.40
30594;DHT22;33199;47.590;8.300;2023-04-22T07:18:28;12.10;71.50
30594;DHT22;33199;47.590;8.300;2023-04-22T07:20:54;12.10;71.50
30594;DHT22;33199;47.590;8.300;2023-04-22T07:23:20;12.10;71.30
30594;DHT22;33199;47.590;8.300;2023-04-22T07:25:45;12.20;71.30
30594;DHT22;33199;47.590;8.300;2023-04-22T07:28:11;12.20;71.30
30594;DHT22;33199;47.590;8.300;2023-04-22T07:30:37;12.20;71.30
30594;DHT22;33199;47.590;8.300;2023-04-22T07:33:02;12.20;71.30
30594;DHT22;33199;47.590;8.300;2023-04-22T07:35:28;12.20;71.40
30594;DHT22;33199;47.590;8.300;2023-04-22T07:37:55;12.20;71.40
30594;DHT22;33199;47.590;8.300;2023-04-22T07:40:20;12.20;71.30
30594;DHT22;33199;47.590;8.300;2023-04-22T07:42:46;12.20;71.40
30594;DHT22;33199;47.590;8.300;2023-04-22T07:45:12;12.20;71.40
30594;DHT22;33199;47.590;8.300;2023-04-22T07:47:38;12.20;71.50
30594;DHT22;33199;47.590;8.300;2023-04-22T07:50:04;12.20;71.60
30594;DHT22;33199;47.590;8.300;2023-04-22T07:52:30;12.20;71.50
30594;DHT22;33199;47.590;8.300;2023-04-22T07:54:55;12.20;71.50
30594;DHT22;33199;47.590;8.300;2023-04-22T07:57:21;12.20;71.60
30594;DHT22;33199;47.590;8.300;2023-04-22T07:59:48;12.30;71.60
30594;DHT22;33199;47.590;8.300;2023-04-22T08:02:13;12.20;71.60
30594;DHT22;33199;47.590;8.300;2023-04-22T08:04:39;12.30;71.60
30594;DHT22;33199;47.590;8.300;2023-04-22T08:07:05;12.30;71.60
30594;DHT22;33199;47.590;8.300;2023-04-22T08:09:30;12.30;71.70
30594;DHT22;33199;47.590;8.300;2023-04-22T08:11:56;12.30;71.70
30594;DHT22;33199;47.590;8.300;2023-04-22T08:14:22;12.30;71.60
30594;DHT22;33199;47.590;8.300;2023-04-22T08:16:50;12.30;71.70
30594;DHT22;33199;47.590;8.300;2023-04-22T08:19:16;12.30;71.60
30594;DHT22;33199;47.590;8.300;2023-04-22T08:21:41;12.30;71.80
30594;DHT22;33199;47.590;8.300;2023-04-22T08:24:07;12.30;71.80
30594;DHT22;33199;47.590;8.300;2023-04-22T08:26:32;12.30;71.90
30594;DHT22;33199;47.590;8.300;2023-04-22T08:28:59;12.30;72.00
30594;DHT22;33199;47.590;8.300;2023-04-22T08:31:24;12.30;72.00
30594;DHT22;33199;47.590;8.300;2023-04-22T08:33:50;12.30;72.00
30594;DHT22;33199;47.590;8.300;2023-04-22T08:36:16;12.30;72.00
30594;DHT22;33199;47.590;8.300;2023-04-22T08:38:42;12.30;72.00
30594;DHT22;33199;47.590;8.300;2023-04-22T08:41:07;12.30;72.00
30594;DHT22;33199;47.590;8.300;2023-04-22T08:43:34;12.30;72.00
30594;DHT22;33199;47.590;8.300;2023-04-22T08:46:00;12.30;72.00
30594;DHT22;33199;47.590;8.300;2023-04-22T08:48:26;12.30;72.10
30594;DHT22;33199;47.590;8.300;2023-04-22T08:50:53;12.30;72.10
30594;DHT22;33199;47.590;8.300;2023-04-22T08:53:20;12.30;72.10
30594;DHT22;33199;47.590;8.300;2023-04-22T08:55:46;12.30;72.10
30594;DHT22;33199;47.590;8.300;2023-04-22T08:58:12;12.30;72.20
30594;DHT22;33199;47.590;8.300;2023-04-22T09:00:41;12.30;72.10
30594;DHT22;33199;47.590;8.300;2023-04-22T09:03:11;12.30;72.10
30594;DHT22;33199;47.590;8.300;2023-04-22T09:05:39;12.30;72.20
30594;DHT22;33199;47.590;8.300;2023-04-22T09:08:09;12.30;72.20
30594;DHT22;33199;47.590;8.300;2023-04-22T09:10:37;12.30;72.20
30594;DHT22;33199;47.590;8.300;2023-04-22T09:13:05;12.30;72.20
30594;DHT22;33199;47.590;8.300;2023-04-22T09:15:36;12.30;72.30
30594;DHT22;33199;47.590;8.300;2023-04-22T09:18:03;12.30;72.40
30594;DHT22;33199;47.590;8.300;2023-04-22T09:20:41;12.30;72.30
30594;DHT22;33199;47.590;8.300;2023-04-22T09:23:07;12.30;72.40
30594;DHT22;33199;47.590;8.300;2023-04-22T09:25:33;12.30;72.40
30594;DHT22;33199;47.590;8.300;2023-04-22T09:28:00;12.30;73.20
30594;DHT22;33199;47.590;8.300;2023-04-22T09:30:34;12.30;72.40
30594;DHT22;33199;47.590;8.300;2023-04-22T09:33:04;12.30;72.50
30594;DHT22;33199;47.590;8.300;2023-04-22T09:35:32;12.30;72.40
30594;DHT22;33199;47.590;8.300;2023-04-22T09:38:00;12.30;72.50
30594;DHT22;33199;47.590;8.300;2023-04-22T09:40:27;12.30;72.50
30594;DHT22;33199;47.590;8.300;2023-04-22T09:42:59;12.30;73.30
30594;DHT22;33199;47.590;8.300;2023-04-22T09:45:36;12.40;73.00
30594;DHT22;33199;47.590;8.300;2023-04-22T09:48:14;12.50;73.90
30594;DHT22;33199;47.590;8.300;2023-04-22T09:50:50;12.60;73.50
30594;DHT22;33199;47.590;8.300;2023-04-22T09:53:20;12.60;73.10
30594;DHT22;33199;47.590;8.300;2023-04-22T09:55:49;12.60;72.90
30594;DHT22;33199;47.590;8.300;2023-04-22T09:58:20;12.60;72.80
30594;DHT22;33199;47.590;8.300;2023-04-22T10:00:50;12.60;72.60
30594;DHT22;33199;47.590;8.300;2023-04-22T10:03:16;12.60;72.70
30594;DHT22;33199;47.590;8.300;2023-04-22T10:05:46;12.50;72.60
30594;DHT22;33199;47.590;8.300;2023-04-22T10:08:15;12.50;72.60
30594;DHT22;33199;47.590;8.300;2023-04-22T10:10:48;12.50;72.80
30594;DHT22;33199;47.590;8.300;2023-04-22T10:13:26;12.50;72.80
30594;DHT22;33199;47.590;8.300;2023-04-22T10:15:54;12.50;72.70
30594;DHT22;33199;47.590;8.300;2023-04-22T10:18:22;12.50;72.80
30594;DHT22;33199;47.590;8.300;2023-04-22T10:20:49;12.50;72.80
30594;DHT22;33199;47.590;8.300;2023-04-22T10:23:21;12.50;72.80
30594;DHT22;33199;47.590;8.300;2023-04-22T10:25:54;12.50;72.80
30594;DHT22;33199;47.590;8.300;2023-04-22T10:28:22;12.50;72.80
30594;DHT22;33199;47.590;8.300;2023-04-22T10:30:48;12.50;72.80
30594;DHT22;33199;47.590;8.300;2023-04-22T10:41:34;13.10;72.20
30594;DHT22;33199;47.590;8.300;2023-04-22T10:44:06;13.20;71.80
30594;DHT22;33199;47.590;8.300;2023-04-22T10:49:20;13.30;71.40
30594;DHT22;33199;47.590;8.300;2023-04-22T10:59:45;13.40;71.30
30594;DHT22;33199;47.590;8.300;2023-04-22T11:02:14;13.40;71.20
30594;DHT22;33199;47.590;8.300;2023-04-22T11:04:40;13.40;71.30
30594;DHT22;33199;47.590;8.300;2023-04-22T11:07:29;13.40;71.30
30594;DHT22;33199;47.590;8.300;2023-04-22T11:10:01;13.40;71.40
30594;DHT22;33199;47.590;8.300;2023-04-22T11:15:06;13.40;71.50
30594;DHT22;33199;47.590;8.300;2023-04-22T11:17:33;13.40;71.50
30594;DHT22;33199;47.590;8.300;2023-04-22T11:19:59;13.40;71.50
30594;DHT22;33199;47.590;8.300;2023-04-22T11:22:26;13.40;71.60
30594;DHT22;33199;47.590;8.300;2023-04-22T11:24:59;13.40;71.50
30594;DHT22;33199;47.590;8.300;2023-04-22T11:27:25;13.40;71.50
30594;DHT22;33199;47.590;8.300;2023-04-22T11:32:33;13.50;71.60
30594;DHT22;33199;47.590;8.300;2023-04-22T11:35:02;13.40;71.70
30594;DHT22;33199;47.590;8.300;2023-04-22T11:37:29;13.40;71.70
30594;DHT22;33199;47.590;8.300;2023-04-22T11:39:59;13.40;71.70
30594;DHT22;33199;47.590;8.300;2023-04-22T11:42:24;13.40;71.70
30594;DHT22;33199;47.590;8.300;2023-04-22T11:44:50;13.40;71.70
30594;DHT22;33199;47.590;8.300;2023-04-22T11:47:16;13.50;71.80
30594;DHT22;33199;47.590;8.300;2023-04-22T11:49:57;13.40;71.70
30594;DHT22;33199;47.590;8.300;2023-04-22T11:52:24;13.50;71.90
30594;DHT22;33199;47.590;8.300;2023-04-22T11:54:50;13.50;71.90
30594;DHT22;33199;47.590;8.300;2023-04-22T11:57:16;13.50;71.90
30594;DHT22;33199;47.590;8.300;2023-04-22T11:59:43;13.50;72.00
30594;DHT22;33199;47.590;8.300;2023-04-22T12:02:09;13.40;71.90
30594;DHT22;33199;47.590;8.300;2023-04-22T12:04:38;13.50;72.00
30594;DHT22;33199;47.590;8.300;2023-04-22T12:07:05;13.50;72.00
30594;DHT22;33199;47.590;8.300;2023-04-22T12:09:32;13.50;72.10
30594;DHT22;33199;47.590;8.300;2023-04-22T12:11:58;13.50;72.10
30594;DHT22;33199;47.590;8.300;2023-04-22T12:14:34;13.50;72.00
30594;DHT22;33199;47.590;8.300;2023-04-22T12:17:03;13.50;72.10
30594;DHT22;33199;47.590;8.300;2023-04-22T12:19:32;13.50;72.10
30594;DHT22;33199;47.590;8.300;2023-04-22T12:21:57;13.50;72.10
30594;DHT22;33199;47.590;8.300;2023-04-22T12:24:27;13.50;72.20
30594;DHT22;33199;47.590;8.300;2023-04-22T12:26:53;13.50;72.20
30594;DHT22;33199;47.590;8.300;2023-04-22T12:29:32;13.50;72.30
30594;DHT22;33199;47.590;8.300;2023-04-22T12:31:58;13.50;72.30
30594;DHT22;33199;47.590;8.300;2023-04-22T12:34:24;13.50;72.30
30594;DHT22;33199;47.590;8.300;2023-04-22T12:36:49;13.50;72.30
30594;DHT22;33199;47.590;8.300;2023-04-22T12:39:15;13.50;72.30
30594;DHT22;33199;47.590;8.300;2023-04-22T12:41:41;13.50;72.40
30594;DHT22;33199;47.590;8.300;2023-04-22T12:44:06;13.50;72.30
30594;DHT22;33199;47.590;8.300;2023-04-22T12:46:35;13.50;72.30
30594;DHT22;33199;47.590;8.300;2023-04-22T12:49:00;13.50;72.30
30594;DHT22;33199;47.590;8.300;2023-04-22T12:51:26;13.50;72.40
30594;DHT22;33199;47.590;8.300;2023-04-22T12:53:52;13.50;72.40
30594;DHT22;33199;47.590;8.300;2023-04-22T12:56:17;13.50;72.50
30594;DHT22;33199;47.590;8.300;2023-04-22T12:58:43;13.70;73.10
30594;DHT22;33199;47.590;8.300;2023-04-22T13:01:08;13.70;72.90
30594;DHT22;33199;47.590;8.300;2023-04-22T13:03:34;13.70;72.60
30594;DHT22;33199;47.590;8.300;2023-04-22T13:06:00;13.70;72.50
30594;DHT22;33199;47.590;8.300;2023-04-22T13:08:25;13.70;72.50
30594;DHT22;33199;47.590;8.300;2023-04-22T13:10:52;13.70;72.50
30594;DHT22;33199;47.590;8.300;2023-04-22T13:13:18;13.70;72.50
30594;DHT22;33199;47.590;8.300;2023-04-22T13:15:43;13.70;72.50
30594;DHT22;33199;47.590;8.300;2023-04-22T13:18:09;13.70;72.50
30594;DHT22;33199;47.590;8.300;2023-04-22T13:20:35;13.70;72.40
30594;DHT22;33199;47.590;8.300;2023-04-22T13:23:01;13.70;72.40
30594;DHT22;33199;47.590;8.300;2023-04-22T13:25:26;13.70;72.50
30594;DHT22;33199;47.590;8.300;2023-04-22T13:27:52;13.70;72.50
30594;DHT22;33199;47.590;8.300;2023-04-22T13:30:18;13.70;72.50
30594;DHT22;33199;47.590;8.300;2023-04-22T13:32:44;13.70;72.60
30594;DHT22;33199;47.590;8.300;2023-04-22T13:35:10;13.70;72.50
30594;DHT22;33199;47.590;8.300;2023-04-22T13:37:35;13.70;72.70
30594;DHT22;33199;47.590;8.300;2023-04-22T13:40:02;14.00;72.40
30594;DHT22;33199;47.590;8.300;2023-04-22T13:42:30;14.00;72.10
30594;DHT22;33199;47.590;8.300;2023-04-22T13:44:55;14.10;71.80
30594;DHT22;33199;47.590;8.300;2023-04-22T13:47:21;14.10;71.70
30594;DHT22;33199;47.590;8.300;2023-04-22T13:49:46;14.10;71.70
30594;DHT22;33199;47.590;8.300;2023-04-22T13:52:12;14.10;71.90
30594;DHT22;33199;47.590;8.300;2023-04-22T13:54:37;14.00;72.70
30594;DHT22;33199;47.590;8.300;2023-04-22T13:57:04;14.00;72.00
30594;DHT22;33199;47.590;8.300;2023-04-22T13:59:30;14.00;72.00
30594;DHT22;33199;47.590;8.300;2023-04-22T14:01:55;14.00;72.20
30594;DHT22;33199;47.590;8.300;2023-04-22T14:04:21;13.90;72.00
30594;DHT22;33199;47.590;8.300;2023-04-22T14:06:46;13.90;72.00
30594;DHT22;33199;47.590;8.300;2023-04-22T14:09:12;13.90;72.10
30594;DHT22;33199;47.590;8.300;2023-04-22T14:11:38;13.90;72.20
30594;DHT22;33199;47.590;8.300;2023-04-22T14:14:04;13.90;72.10
30594;DHT22;33199;47.590;8.300;2023-04-22T14:16:30;13.90;72.00
30594;DHT22;33199;47.590;8.300;2023-04-22T14:18:56;13.90;72.10
30594;DHT22;33199;47.590;8.300;2023-04-22T14:21:22;13.90;72.00
30594;DHT22;33199;47.590;8.300;2023-04-22T14:23:48;13.90;71.90
30594;DHT22;33199;47.590;8.300;2023-04-22T14:26:14;13.90;71.90
30594;DHT22;33199;47.590;8.300;2023-04-22T14:28:40;13.90;71.90
30594;DHT22;33199;47.590;8.300;2023-04-22T14:31:06;13.90;72.00
30594;DHT22;33199;47.590;8.300;2023-04-22T14:33:32;13.90;72.00
30594;DHT22;33199;47.590;8.300;2023-04-22T14:35:58;13.90;72.00
30594;DHT22;33199;47.590;8.300;2023-04-22T14:38:23;13.90;72.00
30594;DHT22;33199;47.590;8.300;2023-04-22T14:40:49;13.90;72.00
30594;DHT22;33199;47.590;8.300;2023-04-22T14:43:17;13.90;71.90
30594;DHT22;33199;47.590;8.300;2023-04-22T14:45:44;13.90;72.00
30594;DHT22;33199;47.590;8.300;2023-04-22T14:48:10;13.90;71.90
30594;DHT22;33199;47.590;8.300;2023-04-22T14:50:35;13.90;72.00
30594;DHT22;33199;47.590;8.300;2023-04-22T14:53:01;13.90;72.00
30594;DHT22;33199;47.590;8.300;2023-04-22T14:55:27;13.90;72.00
30594;DHT22;33199;47.590;8.300;2023-04-22T14:57:54;13.90;72.10
30594;DHT22;33199;47.590;8.300;2023-04-22T15:00:24;13.90;72.10
30594;DHT22;33199;47.590;8.300;2023-04-22T15:02:50;13.90;72.10
30594;DHT22;33199;47.590;8.300;2023-04-22T15:05:16;13.90;72.10
30594;DHT22;33199;47.590;8.300;2023-04-22T15:07:42;13.90;72.10
30594;DHT22;33199;47.590;8.300;2023-04-22T15:10:07;13.90;72.20
30594;DHT22;33199;47.590;8.300;2023-04-22T15:12:33;13.90;72.20
30594;DHT22;33199;47.590;8.300;2023-04-22T15:14:59;13.90;72.20
30594;DHT22;33199;47.590;8.300;2023-04-22T15:17:24;14.00;72.20
30594;DHT22;33199;47.590;8.300;2023-04-22T15:19:50;13.90;72.20
30594;DHT22;33199;47.590;8.300;2023-04-22T15:22:17;13.90;72.20
30594;DHT22;33199;47.590;8.300;2023-04-22T15:24:43;14.00;72.20
30594;DHT22;33199;47.590;8.300;2023-04-22T15:27:09;14.00;72.30
30594;DHT22;33199;47.590;8.300;2023-04-22T15:29:34;14.00;72.30
30594;DHT22;33199;47.590;8.300;2023-04-22T15:32:00;14.00;72.30
30594;DHT22;33199;47.590;8.300;2023-04-22T15:34:26;14.00;72.30
30594;DHT22;33199;47.590;8.300;2023-04-22T15:36:52;14.00;72.30
30594;DHT22;33199;47.590;8.300;2023-04-22T15:39:18;14.00;72.30
30594;DHT22;33199;47.590;8.300;2023-04-22T15:41:44;14.00;72.30
30594;DHT22;33199;47.590;8.300;2023-04-22T15:44:10;14.00;72.30
30594;DHT22;33199;47.590;8.300;2023-04-22T15:46:36;14.00;72.30
30594;DHT22;33199;47.590;8.300;2023-04-22T15:49:02;14.00;72.40